sensor_id;sensor_type;location;lat;lon;timestamp;P1;durP1;ratioP1;P2;durP2;ratioP2
19492;SDS011;9887;54.366;10.958;2022-10-29T00:01:47;10.65;;;3.15;;
19492;SDS011;9887;54.366;10.958;2022-10-29T00:04:15;12.40;;;3.45;;
19492;SDS011;9887;54.366;10.958;2022-10-29T00:06:43;13.82;;;3.63;;
19492;SDS011;9887;54.366;10.958;2022-10-29T00:09:11;14.75;;;3.28;;
19492;SDS011;9887;54.366;10.958;2022-10-29T00:11:39;17.52;;;4.43;;
19492;SDS011;9887;54.366;10.958;2022-10-29T00:14:06;12.02;;;3.88;;
19492;SDS011;9887;54.366;10.958;2022-10-29T00:16:37;16.27;;;3.95;;
19492;SDS011;9887;54.366;10.958;2022-10-29T00:19:05;13.88;;;4.00;;
19492;SDS011;9887;54.366;10.958;2022-10-29T00:21:34;18.05;;;4.30;;
19492;SDS011;9887;54.366;10.958;2022-10-29T00:24:03;15.88;;;4.88;;
19492;SDS011;9887;54.366;10.958;2022-10-29T00:26:32;19.10;;;4.60;;
19492;SDS011;9887;54.366;10.958;2022-10-29T00:29:00;15.85;;;3.60;;
19492;SDS011;9887;54.366;10.958;2022-10-29T00:31:27;13.13;;;3.17;;
19492;SDS011;9887;54.366;10.958;2022-10-29T00:33:57;15.77;;;4.57;;
19492;SDS011;9887;54.366;10.958;2022-10-29T00:36:26;17.73;;;3.90;;
19492;SDS011;9887;54.366;10.958;2022-10-29T00:38:55;16.13;;;4.07;;
19492;SDS011;9887;54.366;10.958;2022-10-29T00:41:24;17.08;;;3.83;;
19492;SDS011;9887;54.366;10.958;2022-10-29T00:46:51;13.20;;;3.50;;
19492;SDS011;9887;54.366;10.958;2022-10-29T00:49:23;15.32;;;3.65;;
19492;SDS011;9887;54.366;10.958;2022-10-29T00:51:52;15.27;;;3.83;;
19492;SDS011;9887;54.366;10.958;2022-10-29T00:54:20;18.88;;;4.40;;
19492;SDS011;9887;54.366;10.958;2022-10-29T00:56:49;14.18;;;4.97;;
19492;SDS011;9887;54.366;10.958;2022-10-29T00:59:20;15.57;;;3.03;;
19492;SDS011;9887;54.366;10.958;2022-10-29T01:01:48;19.05;;;4.15;;
19492;SDS011;9887;54.366;10.958;2022-10-29T01:04:16;14.80;;;3.22;;
19492;SDS011;9887;54.366;10.958;2022-10-29T01:06:46;14.43;;;3.67;;
19492;SDS011;9887;54.366;10.958;2022-10-29T01:09:14;13.55;;;3.63;;
19492;SDS011;9887;54.366;10.958;2022-10-29T01:11:44;18.20;;;4.45;;
19492;SDS011;9887;54.366;10.958;2022-10-29T01:14:26;16.35;;;3.58;;
19492;SDS011;9887;54.366;10.958;2022-10-29T01:17:00;12.80;;;3.33;;
19492;SDS011;9887;54.366;10.958;2022-10-29T01:19:46;16.85;;;3.20;;
19492;SDS011;9887;54.366;10.958;2022-10-29T01:22:38;16.40;;;4.57;;
19492;SDS011;9887;54.366;10.958;2022-10-29T01:25:13;16.15;;;3.97;;
19492;SDS011;9887;54.366;10.958;2022-10-29T01:27:56;14.23;;;3.92;;
19492;SDS011;9887;54.366;10.958;2022-10-29T01:30:36;19.00;;;3.53;;
19492;SDS011;9887;54.366;10.958;2022-10-29T01:33:34;15.35;;;3.65;;
19492;SDS011;9887;54.366;10.958;2022-10-29T01:36:10;13.63;;;3.38;;
19492;SDS011;9887;54.366;10.958;2022-10-29T01:38:47;21.85;;;3.75;;
19492;SDS011;9887;54.366;10.958;2022-10-29T01:41:20;13.48;;;3.75;;
19492;SDS011;9887;54.366;10.958;2022-10-29T01:43:53;12.48;;;3.83;;
19492;SDS011;9887;54.366;10.958;2022-10-29T01:46:27;11.70;;;3.70;;
19492;SDS011;9887;54.366;10.958;2022-10-29T01:49:06;11.55;;;4.18;;
19492;SDS011;9887;54.366;10.958;2022-10-29T01:51:36;17.02;;;3.65;;
19492;SDS011;9887;54.366;10.958;2022-10-29T01:54:06;13.43;;;3.65;;
19492;SDS011;9887;54.366;10.958;2022-10-29T01:56:36;13.77;;;3.40;;
19492;SDS011;9887;54.366;10.958;2022-10-29T01:59:05;14.88;;;3.00;;
19492;SDS011;9887;54.366;10.958;2022-10-29T02:01:56;18.15;;;3.53;;
19492;SDS011;9887;54.366;10.958;2022-10-29T02:04:45;21.10;;;3.55;;
19492;SDS011;9887;54.366;10.958;2022-10-29T02:07:28;19.27;;;3.50;;
19492;SDS011;9887;54.366;10.958;2022-10-29T02:10:08;15.63;;;3.15;;
19492;SDS011;9887;54.366;10.958;2022-10-29T02:12:44;18.77;;;3.20;;
19492;SDS011;9887;54.366;10.958;2022-10-29T02:15:15;18.27;;;3.47;;
19492;SDS011;9887;54.366;10.958;2022-10-29T02:17:46;16.40;;;2.95;;
19492;SDS011;9887;54.366;10.958;2022-10-29T02:20:16;24.77;;;5.00;;
19492;SDS011;9887;54.366;10.958;2022-10-29T02:22:44;18.90;;;2.88;;
19492;SDS011;9887;54.366;10.958;2022-10-29T02:25:12;18.77;;;2.90;;
19492;SDS011;9887;54.366;10.958;2022-10-29T02:27:40;14.32;;;3.10;;
19492;SDS011;9887;54.366;10.958;2022-10-29T02:30:08;16.27;;;3.38;;
19492;SDS011;9887;54.366;10.958;2022-10-29T02:32:36;12.25;;;3.65;;
19492;SDS011;9887;54.366;10.958;2022-10-29T02:35:05;10.07;;;3.22;;
19492;SDS011;9887;54.366;10.958;2022-10-29T02:37:34;20.60;;;3.58;;
19492;SDS011;9887;54.366;10.958;2022-10-29T02:40:03;22.17;;;3.28;;
19492;SDS011;9887;54.366;10.958;2022-10-29T02:42:31;19.00;;;3.00;;
19492;SDS011;9887;54.366;10.958;2022-10-29T02:44:59;20.02;;;3.05;;
19492;SDS011;9887;54.366;10.958;2022-10-29T02:47:27;16.58;;;3.05;;
19492;SDS011;9887;54.366;10.958;2022-10-29T02:49:55;15.55;;;4.20;;
19492;SDS011;9887;54.366;10.958;2022-10-29T02:52:23;21.48;;;3.40;;
19492;SDS011;9887;54.366;10.958;2022-10-29T02:54:52;16.08;;;3.15;;
19492;SDS011;9887;54.366;10.958;2022-10-29T02:57:20;18.02;;;2.95;;
19492;SDS011;9887;54.366;10.958;2022-10-29T02:59:48;11.90;;;3.20;;
19492;SDS011;9887;54.366;10.958;2022-10-29T03:02:16;14.30;;;3.28;;
19492;SDS011;9887;54.366;10.958;2022-10-29T03:04:44;14.25;;;3.20;;
19492;SDS011;9887;54.366;10.958;2022-10-29T03:07:13;26.05;;;3.63;;
19492;SDS011;9887;54.366;10.958;2022-10-29T03:09:41;20.08;;;2.95;;
19492;SDS011;9887;54.366;10.958;2022-10-29T03:12:10;18.10;;;3.15;;
19492;SDS011;9887;54.366;10.958;2022-10-29T03:14:38;20.42;;;2.70;;
19492;SDS011;9887;54.366;10.958;2022-10-29T03:17:06;16.20;;;3.22;;
19492;SDS011;9887;54.366;10.958;2022-10-29T03:19:34;12.10;;;2.97;;
19492;SDS011;9887;54.366;10.958;2022-10-29T03:22:01;23.33;;;2.60;;
19492;SDS011;9887;54.366;10.958;2022-10-29T03:24:29;15.70;;;2.80;;
19492;SDS011;9887;54.366;10.958;2022-10-29T03:26:57;18.40;;;2.67;;
19492;SDS011;9887;54.366;10.958;2022-10-29T03:29:27;14.70;;;3.08;;
19492;SDS011;9887;54.366;10.958;2022-10-29T03:31:55;15.95;;;2.75;;
19492;SDS011;9887;54.366;10.958;2022-10-29T03:34:23;12.77;;;2.58;;
19492;SDS011;9887;54.366;10.958;2022-10-29T03:36:51;8.65;;;2.92;;
19492;SDS011;9887;54.366;10.958;2022-10-29T03:39:18;16.92;;;2.25;;
19492;SDS011;9887;54.366;10.958;2022-10-29T03:41:46;17.30;;;3.40;;
19492;SDS011;9887;54.366;10.958;2022-10-29T03:44:14;21.50;;;2.88;;
19492;SDS011;9887;54.366;10.958;2022-10-29T03:46:44;16.30;;;2.97;;
19492;SDS011;9887;54.366;10.958;2022-10-29T03:49:12;17.02;;;3.75;;
19492;SDS011;9887;54.366;10.958;2022-10-29T03:51:40;20.60;;;3.35;;
19492;SDS011;9887;54.366;10.958;2022-10-29T03:54:08;14.50;;;2.85;;
19492;SDS011;9887;54.366;10.958;2022-10-29T03:56:36;17.08;;;2.60;;
19492;SDS011;9887;54.366;10.958;2022-10-29T03:59:04;12.35;;;2.22;;
19492;SDS011;9887;54.366;10.958;2022-10-29T04:01:32;14.40;;;2.85;;
19492;SDS011;9887;54.366;10.958;2022-10-29T04:04:01;15.95;;;2.78;;
19492;SDS011;9887;54.366;10.958;2022-10-29T04:06:29;22.98;;;3.75;;
19492;SDS011;9887;54.366;10.958;2022-10-29T04:08:57;16.98;;;2.85;;
19492;SDS011;9887;54.366;10.958;2022-10-29T04:11:25;15.32;;;2.22;;
19492;SDS011;9887;54.366;10.958;2022-10-29T04:13:53;21.08;;;2.65;;
19492;SDS011;9887;54.366;10.958;2022-10-29T04:16:21;15.98;;;2.92;;
19492;SDS011;9887;54.366;10.958;2022-10-29T04:18:49;16.80;;;3.15;;
19492;SDS011;9887;54.366;10.958;2022-10-29T04:21:18;8.80;;;1.85;;
19492;SDS011;9887;54.366;10.958;2022-10-29T04:24:06;17.00;;;2.63;;
19492;SDS011;9887;54.366;10.958;2022-10-29T04:26:55;16.52;;;1.92;;
19492;SDS011;9887;54.366;10.958;2022-10-29T04:29:42;14.82;;;2.67;;
19492;SDS011;9887;54.366;10.958;2022-10-29T04:32:10;18.08;;;2.42;;
19492;SDS011;9887;54.366;10.958;2022-10-29T04:34:38;12.10;;;2.40;;
19492;SDS011;9887;54.366;10.958;2022-10-29T04:37:08;15.45;;;2.55;;
19492;SDS011;9887;54.366;10.958;2022-10-29T04:39:36;15.30;;;3.05;;
19492;SDS011;9887;54.366;10.958;2022-10-29T04:42:04;16.17;;;2.50;;
19492;SDS011;9887;54.366;10.958;2022-10-29T04:44:32;18.27;;;3.08;;
19492;SDS011;9887;54.366;10.958;2022-10-29T04:46:59;19.13;;;2.67;;
19492;SDS011;9887;54.366;10.958;2022-10-29T04:49:27;14.80;;;2.78;;
19492;SDS011;9887;54.366;10.958;2022-10-29T04:51:55;21.27;;;2.20;;
19492;SDS011;9887;54.366;10.958;2022-10-29T04:54:25;15.50;;;2.22;;
19492;SDS011;9887;54.366;10.958;2022-10-29T04:56:52;11.63;;;3.30;;
19492;SDS011;9887;54.366;10.958;2022-10-29T04:59:20;14.63;;;2.40;;
19492;SDS011;9887;54.366;10.958;2022-10-29T05:01:48;19.42;;;2.85;;
19492;SDS011;9887;54.366;10.958;2022-10-29T05:04:16;12.60;;;1.98;;
19492;SDS011;9887;54.366;10.958;2022-10-29T05:06:44;12.23;;;2.33;;
19492;SDS011;9887;54.366;10.958;2022-10-29T05:09:11;13.15;;;2.78;;
19492;SDS011;9887;54.366;10.958;2022-10-29T05:11:40;12.15;;;2.20;;
19492;SDS011;9887;54.366;10.958;2022-10-29T05:14:08;13.10;;;2.42;;
19492;SDS011;9887;54.366;10.958;2022-10-29T05:16:36;11.90;;;2.00;;
19492;SDS011;9887;54.366;10.958;2022-10-29T05:19:04;15.50;;;2.78;;
19492;SDS011;9887;54.366;10.958;2022-10-29T05:21:32;18.85;;;2.67;;
19492;SDS011;9887;54.366;10.958;2022-10-29T05:23:59;13.95;;;2.15;;
19492;SDS011;9887;54.366;10.958;2022-10-29T05:26:28;14.85;;;2.40;;
19492;SDS011;9887;54.366;10.958;2022-10-29T05:28:57;13.18;;;3.00;;
19492;SDS011;9887;54.366;10.958;2022-10-29T05:31:25;12.85;;;2.45;;
19492;SDS011;9887;54.366;10.958;2022-10-29T05:33:53;18.75;;;3.03;;
19492;SDS011;9887;54.366;10.958;2022-10-29T05:36:21;15.48;;;2.42;;
19492;SDS011;9887;54.366;10.958;2022-10-29T05:38:49;14.70;;;2.88;;
19492;SDS011;9887;54.366;10.958;2022-10-29T05:41:17;13.85;;;4.25;;
19492;SDS011;9887;54.366;10.958;2022-10-29T05:43:46;19.45;;;1.95;;
19492;SDS011;9887;54.366;10.958;2022-10-29T05:46:16;21.83;;;2.22;;
19492;SDS011;9887;54.366;10.958;2022-10-29T05:48:44;12.02;;;2.05;;
19492;SDS011;9887;54.366;10.958;2022-10-29T05:51:12;17.08;;;2.65;;
19492;SDS011;9887;54.366;10.958;2022-10-29T05:53:40;13.88;;;2.35;;
19492;SDS011;9887;54.366;10.958;2022-10-29T05:56:08;16.13;;;2.10;;
19492;SDS011;9887;54.366;10.958;2022-10-29T05:58:35;12.00;;;1.90;;
19492;SDS011;9887;54.366;10.958;2022-10-29T06:01:04;14.93;;;2.47;;
19492;SDS011;9887;54.366;10.958;2022-10-29T06:03:34;20.23;;;2.17;;
19492;SDS011;9887;54.366;10.958;2022-10-29T06:06:02;18.67;;;2.83;;
19492;SDS011;9887;54.366;10.958;2022-10-29T06:08:30;17.17;;;2.60;;
19492;SDS011;9887;54.366;10.958;2022-10-29T06:10:59;8.20;;;1.67;;
19492;SDS011;9887;54.366;10.958;2022-10-29T06:13:28;15.70;;;2.60;;
19492;SDS011;9887;54.366;10.958;2022-10-29T06:15:57;15.38;;;2.15;;
19492;SDS011;9887;54.366;10.958;2022-10-29T06:18:26;14.40;;;2.20;;
19492;SDS011;9887;54.366;10.958;2022-10-29T06:20:57;12.32;;;2.03;;
19492;SDS011;9887;54.366;10.958;2022-10-29T06:23:26;16.00;;;2.90;;
19492;SDS011;9887;54.366;10.958;2022-10-29T06:25:57;12.82;;;2.38;;
19492;SDS011;9887;54.366;10.958;2022-10-29T06:28:25;11.77;;;2.92;;
19492;SDS011;9887;54.366;10.958;2022-10-29T06:31:00;16.35;;;3.25;;
19492;SDS011;9887;54.366;10.958;2022-10-29T06:33:28;11.30;;;2.15;;
19492;SDS011;9887;54.366;10.958;2022-10-29T06:35:58;14.80;;;2.25;;
19492;SDS011;9887;54.366;10.958;2022-10-29T06:38:26;10.68;;;1.58;;
19492;SDS011;9887;54.366;10.958;2022-10-29T06:40:54;11.10;;;2.00;;
19492;SDS011;9887;54.366;10.958;2022-10-29T06:43:22;12.77;;;1.85;;
19492;SDS011;9887;54.366;10.958;2022-10-29T06:45:49;13.80;;;2.60;;
19492;SDS011;9887;54.366;10.958;2022-10-29T06:48:17;10.98;;;2.00;;
19492;SDS011;9887;54.366;10.958;2022-10-29T06:50:48;14.57;;;1.50;;
19492;SDS011;9887;54.366;10.958;2022-10-29T06:53:17;14.70;;;2.35;;
19492;SDS011;9887;54.366;10.958;2022-10-29T06:55:45;11.00;;;2.13;;
19492;SDS011;9887;54.366;10.958;2022-10-29T06:58:14;11.57;;;1.85;;
19492;SDS011;9887;54.366;10.958;2022-10-29T07:00:44;13.23;;;1.98;;
19492;SDS011;9887;54.366;10.958;2022-10-29T07:03:12;11.38;;;1.88;;
19492;SDS011;9887;54.366;10.958;2022-10-29T07:05:41;14.20;;;1.83;;
19492;SDS011;9887;54.366;10.958;2022-10-29T07:08:09;12.13;;;2.10;;
19492;SDS011;9887;54.366;10.958;2022-10-29T07:10:39;10.73;;;2.05;;
19492;SDS011;9887;54.366;10.958;2022-10-29T07:13:08;8.38;;;1.85;;
19492;SDS011;9887;54.366;10.958;2022-10-29T07:15:36;16.83;;;1.98;;
19492;SDS011;9887;54.366;10.958;2022-10-29T07:18:04;15.68;;;1.92;;
19492;SDS011;9887;54.366;10.958;2022-10-29T07:20:34;13.07;;;2.08;;
19492;SDS011;9887;54.366;10.958;2022-10-29T07:23:03;11.15;;;1.90;;
19492;SDS011;9887;54.366;10.958;2022-10-29T07:25:32;12.85;;;1.83;;
19492;SDS011;9887;54.366;10.958;2022-10-29T07:28:04;15.82;;;2.22;;
19492;SDS011;9887;54.366;10.958;2022-10-29T07:30:34;14.50;;;2.00;;
19492;SDS011;9887;54.366;10.958;2022-10-29T07:33:02;8.60;;;1.90;;
19492;SDS011;9887;54.366;10.958;2022-10-29T07:35:31;11.40;;;2.70;;
19492;SDS011;9887;54.366;10.958;2022-10-29T07:37:59;15.48;;;2.00;;
19492;SDS011;9887;54.366;10.958;2022-10-29T07:40:35;9.40;;;1.73;;
19492;SDS011;9887;54.366;10.958;2022-10-29T07:43:05;10.10;;;2.15;;
19492;SDS011;9887;54.366;10.958;2022-10-29T07:45:33;10.70;;;2.13;;
19492;SDS011;9887;54.366;10.958;2022-10-29T07:48:02;10.77;;;2.13;;
19492;SDS011;9887;54.366;10.958;2022-10-29T07:50:32;11.70;;;1.80;;
19492;SDS011;9887;54.366;10.958;2022-10-29T07:53:00;15.73;;;2.20;;
19492;SDS011;9887;54.366;10.958;2022-10-29T07:55:29;11.68;;;1.83;;
19492;SDS011;9887;54.366;10.958;2022-10-29T07:57:57;16.27;;;3.28;;
19492;SDS011;9887;54.366;10.958;2022-10-29T08:00:29;15.55;;;2.08;;
19492;SDS011;9887;54.366;10.958;2022-10-29T08:02:57;13.57;;;2.22;;
19492;SDS011;9887;54.366;10.958;2022-10-29T08:05:26;11.82;;;2.42;;
19492;SDS011;9887;54.366;10.958;2022-10-29T08:07:54;15.07;;;2.33;;
19492;SDS011;9887;54.366;10.958;2022-10-29T08:10:23;13.07;;;2.15;;
19492;SDS011;9887;54.366;10.958;2022-10-29T08:12:52;11.48;;;2.28;;
19492;SDS011;9887;54.366;10.958;2022-10-29T08:15:22;17.00;;;2.92;;
19492;SDS011;9887;54.366;10.958;2022-10-29T08:17:52;13.52;;;1.90;;
19492;SDS011;9887;54.366;10.958;2022-10-29T08:20:20;13.25;;;2.28;;
19492;SDS011;9887;54.366;10.958;2022-10-29T08:22:49;12.48;;;2.20;;
19492;SDS011;9887;54.366;10.958;2022-10-29T08:25:17;9.02;;;2.00;;
19492;SDS011;9887;54.366;10.958;2022-10-29T08:27:56;14.95;;;2.33;;
19492;SDS011;9887;54.366;10.958;2022-10-29T08:30:24;14.50;;;2.65;;
19492;SDS011;9887;54.366;10.958;2022-10-29T08:32:53;12.73;;;2.40;;
19492;SDS011;9887;54.366;10.958;2022-10-29T08:35:21;15.60;;;2.10;;
19492;SDS011;9887;54.366;10.958;2022-10-29T08:37:49;12.50;;;2.53;;
19492;SDS011;9887;54.366;10.958;2022-10-29T08:40:27;11.50;;;2.22;;
19492;SDS011;9887;54.366;10.958;2022-10-29T08:43:08;12.45;;;2.13;;
19492;SDS011;9887;54.366;10.958;2022-10-29T08:45:52;13.98;;;2.40;;
19492;SDS011;9887;54.366;10.958;2022-10-29T08:48:25;10.93;;;2.30;;
19492;SDS011;9887;54.366;10.958;2022-10-29T08:51:00;15.18;;;2.90;;
19492;SDS011;9887;54.366;10.958;2022-10-29T08:53:33;11.85;;;2.40;;
19492;SDS011;9887;54.366;10.958;2022-10-29T08:56:05;11.55;;;2.10;;
19492;SDS011;9887;54.366;10.958;2022-10-29T08:58:42;11.55;;;2.33;;
19492;SDS011;9887;54.366;10.958;2022-10-29T09:01:16;14.38;;;2.53;;
19492;SDS011;9887;54.366;10.958;2022-10-29T09:03:49;12.27;;;2.30;;
19492;SDS011;9887;54.366;10.958;2022-10-29T09:06:19;14.07;;;2.38;;
19492;SDS011;9887;54.366;10.958;2022-10-29T09:09:00;12.93;;;2.80;;
19492;SDS011;9887;54.366;10.958;2022-10-29T09:11:49;8.45;;;1.90;;
19492;SDS011;9887;54.366;10.958;2022-10-29T09:14:36;8.32;;;2.22;;
19492;SDS011;9887;54.366;10.958;2022-10-29T09:17:15;9.40;;;1.90;;
19492;SDS011;9887;54.366;10.958;2022-10-29T09:19:59;9.60;;;2.47;;
19492;SDS011;9887;54.366;10.958;2022-10-29T09:22:42;10.73;;;2.00;;
19492;SDS011;9887;54.366;10.958;2022-10-29T09:25:17;11.40;;;2.25;;
19492;SDS011;9887;54.366;10.958;2022-10-29T09:27:57;13.43;;;2.20;;
19492;SDS011;9887;54.366;10.958;2022-10-29T09:30:36;11.30;;;1.98;;
19492;SDS011;9887;54.366;10.958;2022-10-29T09:33:10;10.40;;;2.63;;
19492;SDS011;9887;54.366;10.958;2022-10-29T09:35:46;10.73;;;2.35;;
19492;SDS011;9887;54.366;10.958;2022-10-29T09:38:19;9.70;;;1.90;;
19492;SDS011;9887;54.366;10.958;2022-10-29T09:40:50;13.55;;;2.47;;
19492;SDS011;9887;54.366;10.958;2022-10-29T09:43:27;5.05;;;1.50;;
19492;SDS011;9887;54.366;10.958;2022-10-29T09:46:05;4.35;;;1.33;;
19492;SDS011;9887;54.366;10.958;2022-10-29T09:48:39;5.10;;;2.10;;
19492;SDS011;9887;54.366;10.958;2022-10-29T09:51:17;6.25;;;1.48;;
19492;SDS011;9887;54.366;10.958;2022-10-29T09:53:52;9.52;;;1.30;;
19492;SDS011;9887;54.366;10.958;2022-10-29T09:56:20;4.72;;;1.40;;
19492;SDS011;9887;54.366;10.958;2022-10-29T09:58:48;3.92;;;1.50;;
19492;SDS011;9887;54.366;10.958;2022-10-29T10:01:21;8.73;;;2.00;;
19492;SDS011;9887;54.366;10.958;2022-10-29T10:03:52;10.20;;;2.20;;
19492;SDS011;9887;54.366;10.958;2022-10-29T10:06:23;11.13;;;3.08;;
19492;SDS011;9887;54.366;10.958;2022-10-29T10:08:58;9.20;;;2.78;;
19492;SDS011;9887;54.366;10.958;2022-10-29T10:11:29;10.45;;;2.85;;
19492;SDS011;9887;54.366;10.958;2022-10-29T10:14:04;7.72;;;2.40;;
19492;SDS011;9887;54.366;10.958;2022-10-29T10:16:39;12.65;;;2.38;;
19492;SDS011;9887;54.366;10.958;2022-10-29T10:21:57;8.77;;;2.60;;
19492;SDS011;9887;54.366;10.958;2022-10-29T10:24:27;6.57;;;2.53;;
19492;SDS011;9887;54.366;10.958;2022-10-29T10:26:57;8.50;;;2.47;;
19492;SDS011;9887;54.366;10.958;2022-10-29T10:29:25;7.82;;;2.10;;
19492;SDS011;9887;54.366;10.958;2022-10-29T10:32:08;6.38;;;2.33;;
19492;SDS011;9887;54.366;10.958;2022-10-29T10:34:38;7.90;;;2.38;;
19492;SDS011;9887;54.366;10.958;2022-10-29T10:37:10;7.72;;;2.22;;
19492;SDS011;9887;54.366;10.958;2022-10-29T10:39:43;3.72;;;1.90;;
19492;SDS011;9887;54.366;10.958;2022-10-29T10:42:15;4.65;;;1.50;;
19492;SDS011;9887;54.366;10.958;2022-10-29T10:44:46;5.22;;;1.85;;
19492;SDS011;9887;54.366;10.958;2022-10-29T10:47:18;5.68;;;1.95;;
19492;SDS011;9887;54.366;10.958;2022-10-29T10:49:48;8.40;;;2.10;;
19492;SDS011;9887;54.366;10.958;2022-10-29T10:52:18;5.90;;;2.05;;
19492;SDS011;9887;54.366;10.958;2022-10-29T10:54:57;5.63;;;1.95;;
19492;SDS011;9887;54.366;10.958;2022-10-29T10:57:27;3.92;;;1.75;;
19492;SDS011;9887;54.366;10.958;2022-10-29T11:00:02;5.47;;;2.08;;
19492;SDS011;9887;54.366;10.958;2022-10-29T11:02:34;6.13;;;1.88;;
19492;SDS011;9887;54.366;10.958;2022-10-29T11:05:14;6.47;;;1.90;;
19492;SDS011;9887;54.366;10.958;2022-10-29T11:07:46;5.20;;;1.83;;
19492;SDS011;9887;54.366;10.958;2022-10-29T11:10:23;5.95;;;2.08;;
19492;SDS011;9887;54.366;10.958;2022-10-29T11:12:58;4.68;;;1.98;;
19492;SDS011;9887;54.366;10.958;2022-10-29T11:15:31;3.15;;;1.55;;
19492;SDS011;9887;54.366;10.958;2022-10-29T11:18:03;8.20;;;2.10;;
19492;SDS011;9887;54.366;10.958;2022-10-29T11:20:38;8.98;;;2.58;;
19492;SDS011;9887;54.366;10.958;2022-10-29T11:23:26;2.88;;;1.73;;
19492;SDS011;9887;54.366;10.958;2022-10-29T11:26:02;4.85;;;2.20;;
19492;SDS011;9887;54.366;10.958;2022-10-29T11:28:37;5.65;;;1.70;;
19492;SDS011;9887;54.366;10.958;2022-10-29T11:31:10;5.07;;;1.65;;
19492;SDS011;9887;54.366;10.958;2022-10-29T11:33:46;4.90;;;1.67;;
19492;SDS011;9887;54.366;10.958;2022-10-29T11:36:19;7.97;;;2.05;;
19492;SDS011;9887;54.366;10.958;2022-10-29T11:38:51;5.30;;;1.70;;
19492;SDS011;9887;54.366;10.958;2022-10-29T11:41:25;5.80;;;1.75;;
19492;SDS011;9887;54.366;10.958;2022-10-29T11:44:00;4.05;;;1.70;;
19492;SDS011;9887;54.366;10.958;2022-10-29T11:46:31;4.47;;;1.67;;
19492;SDS011;9887;54.366;10.958;2022-10-29T11:49:09;6.28;;;1.88;;
19492;SDS011;9887;54.366;10.958;2022-10-29T11:51:50;4.22;;;1.67;;
19492;SDS011;9887;54.366;10.958;2022-10-29T11:54:34;4.75;;;1.80;;
19492;SDS011;9887;54.366;10.958;2022-10-29T11:57:09;3.83;;;1.63;;
19492;SDS011;9887;54.366;10.958;2022-10-29T11:59:43;5.00;;;1.90;;
19492;SDS011;9887;54.366;10.958;2022-10-29T12:02:43;6.95;;;2.10;;
19492;SDS011;9887;54.366;10.958;2022-10-29T12:05:34;7.00;;;2.72;;
19492;SDS011;9887;54.366;10.958;2022-10-29T12:08:18;8.40;;;2.10;;
19492;SDS011;9887;54.366;10.958;2022-10-29T12:10:56;5.57;;;2.40;;
19492;SDS011;9887;54.366;10.958;2022-10-29T12:13:33;5.07;;;2.10;;
19492;SDS011;9887;54.366;10.958;2022-10-29T12:16:11;6.53;;;2.45;;
19492;SDS011;9887;54.366;10.958;2022-10-29T12:18:46;8.15;;;2.42;;
19492;SDS011;9887;54.366;10.958;2022-10-29T12:21:25;6.53;;;2.72;;
19492;SDS011;9887;54.366;10.958;2022-10-29T12:24:04;6.95;;;2.55;;
19492;SDS011;9887;54.366;10.958;2022-10-29T12:26:47;7.85;;;2.70;;
19492;SDS011;9887;54.366;10.958;2022-10-29T12:29:20;6.93;;;2.67;;
19492;SDS011;9887;54.366;10.958;2022-10-29T12:31:56;6.97;;;2.35;;
19492;SDS011;9887;54.366;10.958;2022-10-29T12:34:30;6.38;;;2.28;;
19492;SDS011;9887;54.366;10.958;2022-10-29T12:37:07;8.68;;;2.72;;
19492;SDS011;9887;54.366;10.958;2022-10-29T12:39:40;5.22;;;2.45;;
19492;SDS011;9887;54.366;10.958;2022-10-29T12:42:15;8.95;;;2.55;;
19492;SDS011;9887;54.366;10.958;2022-10-29T12:44:49;5.53;;;2.22;;
19492;SDS011;9887;54.366;10.958;2022-10-29T12:47:29;5.93;;;2.00;;
19492;SDS011;9887;54.366;10.958;2022-10-29T12:50:05;6.22;;;2.20;;
19492;SDS011;9887;54.366;10.958;2022-10-29T12:52:45;6.85;;;2.95;;
19492;SDS011;9887;54.366;10.958;2022-10-29T12:55:19;6.53;;;2.63;;
19492;SDS011;9887;54.366;10.958;2022-10-29T12:57:49;7.03;;;2.53;;
19492;SDS011;9887;54.366;10.958;2022-10-29T13:06:38;10.20;;;2.72;;
19492;SDS011;9887;54.366;10.958;2022-10-29T13:09:14;8.93;;;2.88;;
19492;SDS011;9887;54.366;10.958;2022-10-29T13:11:45;7.95;;;2.70;;
19492;SDS011;9887;54.366;10.958;2022-10-29T13:14:15;7.13;;;2.67;;
19492;SDS011;9887;54.366;10.958;2022-10-29T13:16:49;6.82;;;2.30;;
19492;SDS011;9887;54.366;10.958;2022-10-29T13:19:37;11.25;;;2.30;;
19492;SDS011;9887;54.366;10.958;2022-10-29T13:22:31;7.22;;;2.55;;
19492;SDS011;9887;54.366;10.958;2022-10-29T13:34:10;6.68;;;2.22;;
19492;SDS011;9887;54.366;10.958;2022-10-29T13:37:37;8.15;;;2.78;;
19492;SDS011;9887;54.366;10.958;2022-10-29T13:40:41;4.88;;;1.90;;
19492;SDS011;9887;54.366;10.958;2022-10-29T13:43:28;5.75;;;2.22;;
19492;SDS011;9887;54.366;10.958;2022-10-29T13:46:19;8.45;;;2.67;;
19492;SDS011;9887;54.366;10.958;2022-10-29T13:48:53;7.00;;;2.00;;
19492;SDS011;9887;54.366;10.958;2022-10-29T13:51:33;4.63;;;2.05;;
19492;SDS011;9887;54.366;10.958;2022-10-29T13:54:06;6.03;;;2.28;;
19492;SDS011;9887;54.366;10.958;2022-10-29T13:56:38;6.40;;;1.90;;
19492;SDS011;9887;54.366;10.958;2022-10-29T13:59:14;5.68;;;1.80;;
19492;SDS011;9887;54.366;10.958;2022-10-29T14:01:50;5.15;;;2.30;;
19492;SDS011;9887;54.366;10.958;2022-10-29T14:04:27;5.65;;;2.42;;
19492;SDS011;9887;54.366;10.958;2022-10-29T14:07:00;5.60;;;1.95;;
19492;SDS011;9887;54.366;10.958;2022-10-29T14:09:33;6.93;;;2.25;;
19492;SDS011;9887;54.366;10.958;2022-10-29T14:12:05;7.13;;;2.20;;
19492;SDS011;9887;54.366;10.958;2022-10-29T14:14:36;5.63;;;2.10;;
19492;SDS011;9887;54.366;10.958;2022-10-29T14:17:13;5.65;;;1.80;;
19492;SDS011;9887;54.366;10.958;2022-10-29T14:19:45;7.40;;;2.22;;
19492;SDS011;9887;54.366;10.958;2022-10-29T14:22:14;8.07;;;2.03;;
19492;SDS011;9887;54.366;10.958;2022-10-29T14:24:54;9.85;;;2.53;;
19492;SDS011;9887;54.366;10.958;2022-10-29T14:27:22;5.70;;;2.35;;
19492;SDS011;9887;54.366;10.958;2022-10-29T14:29:50;5.80;;;2.08;;
19492;SDS011;9887;54.366;10.958;2022-10-29T14:32:20;5.80;;;2.17;;
19492;SDS011;9887;54.366;10.958;2022-10-29T14:34:50;4.72;;;2.33;;
19492;SDS011;9887;54.366;10.958;2022-10-29T14:37:24;7.45;;;2.20;;
19492;SDS011;9887;54.366;10.958;2022-10-29T14:39:55;10.65;;;3.30;;
19492;SDS011;9887;54.366;10.958;2022-10-29T14:42:26;7.90;;;3.05;;
19492;SDS011;9887;54.366;10.958;2022-10-29T14:44:57;7.82;;;3.17;;
19492;SDS011;9887;54.366;10.958;2022-10-29T14:47:27;9.35;;;2.80;;
19492;SDS011;9887;54.366;10.958;2022-10-29T14:50:00;11.63;;;3.42;;
19492;SDS011;9887;54.366;10.958;2022-10-29T14:52:31;6.80;;;3.10;;
19492;SDS011;9887;54.366;10.958;2022-10-29T14:55:05;12.10;;;4.07;;
19492;SDS011;9887;54.366;10.958;2022-10-29T14:57:37;8.70;;;3.20;;
19492;SDS011;9887;54.366;10.958;2022-10-29T15:00:19;8.20;;;3.47;;
19492;SDS011;9887;54.366;10.958;2022-10-29T15:02:49;7.10;;;3.35;;
19492;SDS011;9887;54.366;10.958;2022-10-29T15:05:21;7.65;;;3.50;;
19492;SDS011;9887;54.366;10.958;2022-10-29T15:08:01;8.23;;;3.40;;
19492;SDS011;9887;54.366;10.958;2022-10-29T15:10:30;9.88;;;3.28;;
19492;SDS011;9887;54.366;10.958;2022-10-29T15:12:58;11.85;;;4.63;;
19492;SDS011;9887;54.366;10.958;2022-10-29T15:15:47;18.08;;;5.95;;
19492;SDS011;9887;54.366;10.958;2022-10-29T15:18:19;17.85;;;7.25;;
19492;SDS011;9887;54.366;10.958;2022-10-29T15:20:50;19.55;;;8.23;;
19492;SDS011;9887;54.366;10.958;2022-10-29T15:23:22;23.17;;;9.05;;
19492;SDS011;9887;54.366;10.958;2022-10-29T15:25:53;24.70;;;8.20;;
19492;SDS011;9887;54.366;10.958;2022-10-29T15:28:26;13.23;;;7.22;;
19492;SDS011;9887;54.366;10.958;2022-10-29T15:30:59;16.58;;;7.35;;